createdAt,value
2023-04-01T00:00:49.939Z,72.46
2023-04-01T00:01:51.633Z,72.93
2023-04-01T00:02:53.127Z,72.69
2023-04-01T00:03:55.453Z,72.74
2023-04-01T00:04:57.186Z,72.57
2023-04-01T00:06:00.524Z,72.85
2023-04-01T00:07:02.709Z,72.46
2023-04-01T00:08:04.296Z,72.24
2023-04-01T00:09:05.893Z,72.47
2023-04-01T00:10:09.389Z,72.49
2023-04-01T00:11:10.789Z,72.21
2023-04-01T00:12:12.261Z,72.03
2023-04-01T00:13:14.486Z,71.99
2023-04-01T00:14:16.064Z,72.02
2023-04-01T00:15:17.615Z,72.24
2023-04-01T00:16:21.588Z,72.56
2023-04-01T00:17:23.952Z,72.58
2023-04-01T00:18:26.186Z,72.43
2023-04-01T00:19:27.594Z,72.32
2023-04-01T00:20:29.991Z,72.44
2023-04-01T00:21:31.533Z,72.57
2023-04-01T00:22:33.131Z,72.33
2023-04-01T00:23:35.028Z,72.67
2023-04-01T00:24:36.674Z,72.71
2023-04-01T00:25:38.094Z,72.40
2023-04-01T00:26:39.494Z,72.43
2023-04-01T00:27:41.356Z,72.48
2023-04-01T00:28:42.773Z,72.83
2023-04-01T00:29:45.598Z,72.78
2023-04-01T00:30:48.105Z,72.25
2023-04-01T00:31:50.232Z,72.72
2023-04-01T00:32:55.078Z,72.27
2023-04-01T00:33:57.445Z,72.55
2023-04-01T00:35:00.980Z,72.11
2023-04-01T00:36:11.468Z,72.44
2023-04-01T00:37:13.064Z,71.92
2023-04-01T00:38:14.818Z,72.43
2023-04-01T00:39:16.337Z,72.39
2023-04-01T00:40:29.747Z,71.91
2023-04-01T00:41:31.655Z,72.02
2023-04-01T00:42:33.450Z,71.90
2023-04-01T00:43:35.554Z,71.70
2023-04-01T00:44:39.433Z,71.52
2023-04-01T00:45:43.605Z,71.41
2023-04-01T00:46:45.340Z,71.13
2023-04-01T00:47:47.214Z,70.97
2023-04-01T00:48:53.691Z,70.83
2023-04-01T00:49:56.122Z,70.92
2023-04-01T00:51:03.334Z,71.13
2023-04-01T00:52:07.552Z,70.77
2023-04-01T00:53:09.357Z,71.19
2023-04-01T00:54:12.049Z,71.18
2023-04-01T00:55:15.600Z,71.38
2023-04-01T00:56:23.246Z,71.23
2023-04-01T00:57:37.646Z,71.07
2023-04-01T00:58:44.936Z,71.19
2023-04-01T00:59:50.756Z,70.73
2023-04-01T01:00:53.320Z,70.70
2023-04-01T01:01:54.933Z,70.27
2023-04-01T01:02:56.458Z,70.29
2023-04-01T01:03:57.944Z,70.53
2023-04-01T01:04:59.400Z,70.57
2023-04-01T01:06:11.328Z,70.08
2023-04-01T01:07:41.902Z,69.78
2023-04-01T01:09:20.138Z,69.93
2023-04-01T01:10:32.809Z,70.23
2023-04-01T01:11:49.040Z,70.67
2023-04-01T01:12:59.947Z,70.40
2023-04-01T01:15:22.411Z,70.10
2023-04-01T01:16:41.930Z,69.71
2023-04-01T01:18:02.335Z,69.70
2023-04-01T01:19:10.584Z,68.81
2023-04-01T01:21:08.673Z,68.83
2023-04-01T01:22:34.544Z,69.04
2023-04-01T01:24:07.054Z,68.94
2023-04-01T01:25:13.957Z,68.88
2023-04-01T01:26:49.342Z,69.13
2023-04-01T01:28:11.195Z,69.49
2023-04-01T01:29:30.345Z,69.66
2023-04-01T01:30:52.947Z,69.37
2023-04-01T01:32:04.190Z,69.76
2023-04-01T01:33:39.158Z,69.24
2023-04-01T01:34:59.817Z,69.48
2023-04-01T01:36:06.015Z,69.36
2023-04-01T01:37:14.623Z,69.39
2023-04-01T01:38:27.775Z,69.11
2023-04-01T01:39:32.904Z,69.32
2023-04-01T01:40:37.652Z,69.55
2023-04-01T01:41:42.847Z,69.62
2023-04-01T01:42:49.537Z,69.55
2023-04-01T01:43:54.532Z,69.43
2023-04-01T01:44:58.443Z,69.03
2023-04-01T01:46:06.318Z,69.42
2023-04-01T01:47:08.861Z,69.13
2023-04-01T01:48:12.135Z,69.12
2023-04-01T01:49:15.475Z,69.23
2023-04-01T01:50:18.740Z,69.24
2023-04-01T01:51:22.452Z,69.50
2023-04-01T01:52:24.777Z,69.86
2023-04-01T01:53:26.318Z,69.60
2023-04-01T01:54:27.758Z,69.23
2023-04-01T01:55:32.569Z,68.99
2023-04-01T01:56:36.375Z,69.36
2023-04-01T01:57:39.959Z,68.72
2023-04-01T01:58:45.553Z,69.05
2023-04-01T01:59:49.908Z,69.00
2023-04-01T02:00:56.148Z,68.75
2023-04-01T02:01:58.370Z,68.97
2023-04-01T02:03:01.337Z,68.63
2023-04-01T02:04:03.668Z,68.70
2023-04-01T02:05:06.660Z,68.61
2023-04-01T02:06:09.602Z,68.56
2023-04-01T02:07:34.729Z,68.37
2023-04-01T02:08:45.880Z,67.81
2023-04-01T02:09:49.045Z,67.60
2023-04-01T02:11:06.666Z,67.56
2023-04-01T02:12:14.729Z,67.80
2023-04-01T02:13:30.624Z,67.19
2023-04-01T02:14:41.552Z,66.84
2023-04-01T02:15:48.129Z,67.06
2023-04-01T02:17:04.570Z,66.68
2023-04-01T02:18:06.295Z,66.79
2023-04-01T02:19:09.889Z,66.93
2023-04-01T02:20:16.900Z,66.65
2023-04-01T02:21:22.201Z,66.76
2023-04-01T02:22:35.351Z,67.02
2023-04-01T02:23:39.856Z,67.03
2023-04-01T02:24:44.294Z,66.84
2023-04-01T02:25:47.466Z,66.71
2023-04-01T02:26:52.048Z,67.41
2023-04-01T02:27:55.822Z,67.24
2023-04-01T02:28:58.490Z,67.16
2023-04-01T02:30:00.295Z,66.98
2023-04-01T02:31:03.821Z,67.39
2023-04-01T02:32:08.238Z,67.09
2023-04-01T02:33:09.889Z,67.06
2023-04-01T02:34:11.939Z,67.21
2023-04-01T02:35:16.374Z,67.19
2023-04-01T02:36:18.464Z,66.83
2023-04-01T02:37:20.357Z,67.41
2023-04-01T02:38:22.213Z,67.07
2023-04-01T02:39:23.834Z,67.27
2023-04-01T02:40:25.521Z,67.29
2023-04-01T02:41:27.192Z,67.37
2023-04-01T02:42:28.686Z,67.08
2023-04-01T02:43:30.255Z,67.06
2023-04-01T02:44:32.034Z,67.37
2023-04-01T02:45:33.694Z,67.44
2023-04-01T02:46:35.390Z,67.18
2023-04-01T02:47:36.901Z,66.84
2023-04-01T02:48:38.409Z,67.08
2023-04-01T02:49:39.903Z,66.98
2023-04-01T02:50:41.351Z,66.92
2023-04-01T02:51:42.786Z,66.46
2023-04-01T02:52:44.214Z,67.01
2023-04-01T02:53:45.771Z,66.97
2023-04-01T02:54:47.205Z,66.66
2023-04-01T02:55:51.379Z,66.58
2023-04-01T02:56:52.852Z,66.87
2023-04-01T02:57:54.324Z,66.95
2023-04-01T02:58:56.758Z,67.07
2023-04-01T02:59:58.289Z,67.46
2023-04-01T03:00:59.804Z,67.19
2023-04-01T03:02:01.341Z,66.86
2023-04-01T03:03:03.797Z,66.67
2023-04-01T03:04:06.221Z,66.56
2023-04-01T03:05:08.197Z,66.43
2023-04-01T03:06:13.035Z,66.49
2023-04-01T03:07:14.501Z,66.40
2023-04-01T03:08:16.161Z,66.69
2023-04-01T03:09:17.775Z,66.43
2023-04-01T03:10:19.350Z,66.82
2023-04-01T03:11:22.497Z,67.02
2023-04-01T03:12:23.921Z,67.09
2023-04-01T03:13:25.481Z,67.13
2023-04-01T03:14:27.035Z,67.01
2023-04-01T03:15:28.569Z,67.00
2023-04-01T03:16:30.404Z,66.63
2023-04-01T03:17:32.974Z,66.87
2023-04-01T03:18:34.460Z,66.93
2023-04-01T03:19:36.007Z,66.70
2023-04-01T03:20:37.463Z,66.81
2023-04-01T03:21:39.389Z,66.74
2023-04-01T03:22:42.864Z,66.60
2023-04-01T03:23:44.884Z,66.98
2023-04-01T03:24:46.345Z,66.92
2023-04-01T03:25:49.004Z,66.74
2023-04-01T03:26:50.681Z,66.81
2023-04-01T03:27:52.157Z,66.89
2023-04-01T03:28:54.272Z,67.05
2023-04-01T03:29:55.750Z,67.12
2023-04-01T03:30:57.678Z,66.85
2023-04-01T03:31:59.895Z,67.02
2023-04-01T03:33:01.828Z,66.80
2023-04-01T03:34:03.356Z,66.61
2023-04-01T03:35:05.933Z,66.89
2023-04-01T03:36:08.268Z,67.02
2023-04-01T03:37:09.749Z,66.95
2023-04-01T03:38:11.200Z,67.31
2023-04-01T03:39:13.103Z,66.51
2023-04-01T03:40:14.625Z,66.92
2023-04-01T03:41:18.015Z,67.07
2023-04-01T03:42:19.590Z,66.90
2023-04-01T03:43:21.461Z,67.11
2023-04-01T03:44:22.895Z,67.46
2023-04-01T03:45:24.747Z,67.36
2023-04-01T03:46:26.218Z,66.99
2023-04-01T03:47:27.661Z,67.24
2023-04-01T03:48:29.122Z,67.66
2023-04-01T03:49:30.826Z,67.33
2023-04-01T03:50:32.327Z,67.51
2023-04-01T03:51:33.794Z,66.84
2023-04-01T03:52:35.737Z,66.99
2023-04-01T03:53:37.249Z,66.77
2023-04-01T03:54:39.054Z,66.89
2023-04-01T03:55:40.892Z,66.88
2023-04-01T03:56:42.404Z,67.01
2023-04-01T03:57:43.824Z,66.80
2023-04-01T03:58:45.327Z,67.00
2023-04-01T03:59:46.747Z,66.82
2023-04-01T04:00:48.197Z,66.58
2023-04-01T04:01:49.637Z,66.57
2023-04-01T04:02:51.468Z,66.36
2023-04-01T04:03:53.230Z,66.02
2023-04-01T04:04:54.942Z,65.93
2023-04-01T04:05:57.585Z,66.47
2023-04-01T04:06:59.388Z,66.50
2023-04-01T04:08:00.846Z,66.43
2023-04-01T04:09:02.449Z,66.19
2023-04-01T04:10:04.665Z,66.66
2023-04-01T04:12:07.613Z,66.66
2023-04-01T04:13:09.027Z,66.59
2023-04-01T04:14:10.644Z,66.66
2023-04-01T04:15:12.979Z,66.73
2023-04-01T04:16:15.742Z,66.68
2023-04-01T04:17:17.438Z,66.74
2023-04-01T04:18:18.989Z,66.60
2023-04-01T04:19:20.478Z,66.72
2023-04-01T04:20:22.278Z,66.17
2023-04-01T04:21:23.831Z,66.38
2023-04-01T04:22:25.361Z,66.49
2023-04-01T04:23:26.904Z,66.62
2023-04-01T04:24:28.529Z,66.33
2023-04-01T04:25:30.521Z,66.27
2023-04-01T04:26:32.217Z,66.45
2023-04-01T04:27:34.270Z,66.23
2023-04-01T04:28:36.001Z,66.25
2023-04-01T04:29:37.469Z,66.31
2023-04-01T04:30:39.220Z,66.45
2023-04-01T04:31:40.800Z,66.32
2023-04-01T04:32:43.092Z,65.86
2023-04-01T04:33:44.757Z,66.68
2023-04-01T04:34:46.253Z,66.77
2023-04-01T04:35:48.016Z,66.31
2023-04-01T04:36:49.965Z,66.67
2023-04-01T04:37:51.558Z,67.38
2023-04-01T04:38:53.064Z,67.01
2023-04-01T04:39:54.880Z,66.50
2023-04-01T04:40:56.726Z,66.93
2023-04-01T04:41:58.139Z,66.90
2023-04-01T04:42:59.594Z,66.70
2023-04-01T04:44:01.039Z,66.82
2023-04-01T04:45:02.910Z,66.47
2023-04-01T04:46:11.873Z,66.29
2023-04-01T04:47:13.454Z,66.38
2023-04-01T04:48:22.344Z,66.87
2023-04-01T04:49:23.809Z,66.77
2023-04-01T04:50:26.638Z,67.22
2023-04-01T04:51:28.403Z,67.87
2023-04-01T04:52:29.862Z,67.43
2023-04-01T04:53:31.309Z,68.01
2023-04-01T04:54:32.787Z,68.17
2023-04-01T04:55:34.461Z,68.54
2023-04-01T04:56:36.902Z,68.02
2023-04-01T04:57:38.452Z,68.67
2023-04-01T04:58:40.298Z,68.88
2023-04-01T04:59:42.070Z,68.64
2023-04-01T05:00:44.072Z,68.14
2023-04-01T05:01:45.844Z,68.17
2023-04-01T05:02:47.583Z,68.16
2023-04-01T05:03:49.419Z,68.72
2023-04-01T05:04:51.007Z,68.97
2023-04-01T05:05:54.611Z,68.80
2023-04-01T05:06:56.183Z,68.35
2023-04-01T05:07:57.639Z,68.40
2023-04-01T05:08:59.127Z,68.50
2023-04-01T05:10:01.060Z,68.28
2023-04-01T05:11:03.519Z,68.29
2023-04-01T05:12:05.289Z,67.83
2023-04-01T05:13:07.749Z,68.35
2023-04-01T05:14:18.754Z,68.44
2023-04-01T05:15:20.321Z,68.55
2023-04-01T05:16:22.251Z,68.32
2023-04-01T05:17:23.798Z,68.33
2023-04-01T05:18:25.638Z,67.99
2023-04-01T05:19:27.608Z,68.19
2023-04-01T05:20:29.299Z,68.15
2023-04-01T05:21:30.827Z,67.64
2023-04-01T05:22:32.274Z,68.19
2023-04-01T05:23:34.151Z,68.23
2023-04-01T05:24:35.681Z,68.53
2023-04-01T05:25:39.360Z,68.74
2023-04-01T05:26:40.778Z,68.61
2023-04-01T05:27:42.300Z,68.78
2023-04-01T05:28:43.847Z,68.35
2023-04-01T05:29:45.373Z,68.82
2023-04-01T05:30:47.190Z,68.88
2023-04-01T05:31:48.660Z,69.08
2023-04-01T05:32:50.322Z,69.22
2023-04-01T05:33:51.896Z,69.32
2023-04-01T05:34:54.524Z,69.66
2023-04-01T05:35:56.480Z,69.82
2023-04-01T05:36:57.956Z,69.87
2023-04-01T05:37:59.452Z,70.52
2023-04-01T05:39:01.269Z,70.05
2023-04-01T05:40:04.023Z,69.86
2023-04-01T05:41:05.645Z,69.54
2023-04-01T05:42:08.484Z,69.61
2023-04-01T05:43:10.023Z,69.58
2023-04-01T05:44:12.873Z,69.65
2023-04-01T05:45:16.726Z,69.82
2023-04-01T05:46:18.368Z,69.64
2023-04-01T05:47:19.930Z,69.92
2023-04-01T05:48:39.669Z,69.72
2023-04-01T05:49:45.023Z,69.85
2023-04-01T05:50:47.422Z,69.47
2023-04-01T05:51:48.930Z,69.58
2023-04-01T05:52:50.392Z,69.44
2023-04-01T05:53:53.346Z,69.74
2023-04-01T05:54:54.975Z,69.98
2023-04-01T05:55:56.535Z,70.15
2023-04-01T05:56:58.028Z,69.46
2023-04-01T05:57:59.513Z,69.60
2023-04-01T05:59:01.414Z,69.52
2023-04-01T06:00:04.374Z,70.23
2023-04-01T06:01:14.095Z,70.01
2023-04-01T06:02:18.878Z,70.17
2023-04-01T06:03:20.434Z,70.34
2023-04-01T06:04:22.629Z,70.19
2023-04-01T06:05:26.456Z,70.04
2023-04-01T06:06:29.997Z,69.67
2023-04-01T06:07:31.482Z,70.09
2023-04-01T06:08:33.456Z,70.09
2023-04-01T06:09:34.874Z,70.07
2023-04-01T06:11:02.237Z,70.65
2023-04-01T06:12:22.154Z,71.10
2023-04-01T06:13:40.482Z,71.12
2023-04-01T06:14:52.511Z,71.50
2023-04-01T06:16:44.772Z,70.87
2023-04-01T06:18:04.403Z,71.35
2023-04-01T06:19:18.796Z,71.49
2023-04-01T06:20:48.804Z,71.67
2023-04-01T06:22:02.728Z,71.28
2023-04-01T06:23:16.836Z,71.53
2023-04-01T06:24:26.386Z,71.81
2023-04-01T06:26:32.870Z,71.76
2023-04-01T06:28:09.339Z,71.67
2023-04-01T06:29:28.245Z,71.47
2023-04-01T06:30:41.489Z,70.39
2023-04-01T06:31:52.840Z,69.96
2023-04-01T06:33:03.473Z,69.86
2023-04-01T06:34:27.896Z,69.37
2023-04-01T06:35:47.244Z,69.41
2023-04-01T06:37:07.740Z,69.56
2023-04-01T06:38:18.769Z,69.19
2023-04-01T06:39:31.524Z,68.27
2023-04-01T06:40:39.150Z,68.42
2023-04-01T06:41:55.858Z,68.45
2023-04-01T06:43:32.780Z,68.23
2023-04-01T06:44:56.720Z,68.07
2023-04-01T06:46:35.353Z,67.80
2023-04-01T06:48:02.769Z,68.09
2023-04-01T06:49:22.403Z,68.51
2023-04-01T06:50:32.013Z,68.65
2023-04-01T06:51:47.617Z,68.19
2023-04-01T06:53:27.388Z,67.95
2023-04-01T06:54:39.907Z,68.05
2023-04-01T06:55:48.248Z,67.96
2023-04-01T06:56:56.699Z,67.69
2023-04-01T06:58:01.361Z,67.85
2023-04-01T06:59:13.525Z,68.10
2023-04-01T07:00:23.787Z,67.56
2023-04-01T07:01:35.546Z,67.53
2023-04-01T07:02:46.560Z,67.31
2023-04-01T07:03:56.807Z,67.22
2023-04-01T07:04:59.450Z,66.85
2023-04-01T07:06:05.390Z,67.39
2023-04-01T07:07:34.294Z,67.39
2023-04-01T07:08:41.409Z,67.36
2023-04-01T07:09:51.065Z,67.60
2023-04-01T07:10:59.673Z,67.14
2023-04-01T07:12:07.298Z,67.56
2023-04-01T07:13:17.010Z,67.29
2023-04-01T07:14:26.730Z,66.73
2023-04-01T07:15:55.527Z,66.96
2023-04-01T07:17:07.357Z,67.06
2023-04-01T07:18:17.757Z,66.47
2023-04-01T07:19:45.607Z,66.46
2023-04-01T07:20:48.064Z,66.64
2023-04-01T07:21:55.702Z,65.68
2023-04-01T07:23:00.445Z,65.83
2023-04-01T07:24:07.260Z,65.62
2023-04-01T07:25:15.441Z,65.95
2023-04-01T07:26:21.813Z,65.98
2023-04-01T07:27:24.095Z,65.73
2023-04-01T07:28:31.330Z,65.70
2023-04-01T07:29:33.029Z,65.94
2023-04-01T07:31:03.570Z,65.91
2023-04-01T07:32:41.212Z,65.90
2023-04-01T07:33:52.023Z,65.81
2023-04-01T07:35:02.610Z,65.98
2023-04-01T07:36:17.252Z,65.05
2023-04-01T07:37:21.355Z,65.02
2023-04-01T07:38:39.857Z,64.63
2023-04-01T07:39:50.264Z,64.87
2023-04-01T07:41:13.393Z,64.79
2023-04-01T07:42:21.898Z,64.61
2023-04-01T07:43:26.502Z,64.55
2023-04-01T07:45:11.416Z,64.17
2023-04-01T07:46:31.869Z,63.93
2023-04-01T07:47:57.847Z,64.04
2023-04-01T07:49:11.539Z,63.90
2023-04-01T07:50:19.207Z,63.34
2023-04-01T07:51:47.102Z,63.93
2023-04-01T07:53:00.322Z,63.37
2023-04-01T07:54:27.390Z,63.87
2023-04-01T07:55:38.247Z,64.00
2023-04-01T07:56:52.690Z,63.85
2023-04-01T07:58:33.302Z,64.27
2023-04-01T07:59:56.668Z,64.23
2023-04-01T08:01:04.963Z,63.88
2023-04-01T08:02:22.149Z,63.86
2023-04-01T08:03:38.946Z,63.77
2023-04-01T08:05:13.080Z,63.84
2023-04-01T08:06:29.473Z,63.67
2023-04-01T08:07:54.335Z,63.65
2023-04-01T08:09:08.062Z,64.25
2023-04-01T08:10:31.585Z,64.37
2023-04-01T08:12:03.178Z,64.58
2023-04-01T08:13:31.144Z,64.07
2023-04-01T08:15:00.218Z,64.18
2023-04-01T08:16:31.938Z,63.99
2023-04-01T08:17:36.692Z,63.70
2023-04-01T08:18:48.061Z,62.96
2023-04-01T08:20:03.936Z,62.66
2023-04-01T08:21:15.632Z,62.86
2023-04-01T08:22:30.065Z,63.67
2023-04-01T08:23:34.895Z,63.79
2023-04-01T08:24:47.921Z,63.57
2023-04-01T08:25:57.576Z,63.23
2023-04-01T08:27:04.372Z,63.24
2023-04-01T08:28:35.052Z,63.49
2023-04-01T08:30:00.951Z,62.92
2023-04-01T08:31:05.720Z,63.04
2023-04-01T08:32:13.576Z,63.05
2023-04-01T08:33:22.721Z,63.02
2023-04-01T08:34:35.102Z,63.05
2023-04-01T08:35:46.999Z,62.54
2023-04-01T08:36:55.277Z,62.73
2023-04-01T08:38:02.306Z,63.14
2023-04-01T08:39:19.164Z,62.81
2023-04-01T08:40:57.053Z,62.95
2023-04-01T08:42:24.405Z,63.11
2023-04-01T08:43:55.995Z,63.23
2023-04-01T08:45:35.316Z,63.23
2023-04-01T08:47:02.746Z,63.42
2023-04-01T08:48:55.534Z,63.55
2023-04-01T08:50:23.434Z,63.03
2023-04-01T08:51:49.599Z,62.77
2023-04-01T08:53:01.016Z,63.00
2023-04-01T08:54:02.751Z,63.12
2023-04-01T08:55:24.171Z,62.97
2023-04-01T08:56:34.616Z,62.82
2023-04-01T08:57:52.102Z,62.94
2023-04-01T08:59:10.931Z,63.17
2023-04-01T09:00:27.779Z,62.84
2023-04-01T09:01:51.735Z,63.41
2023-04-01T09:03:25.888Z,62.42
2023-04-01T09:04:53.436Z,62.65
2023-04-01T09:06:00.958Z,62.54
2023-04-01T09:07:20.594Z,62.42
2023-04-01T09:09:12.926Z,62.52
2023-04-01T09:10:51.778Z,62.64
2023-04-01T09:12:08.928Z,62.17
2023-04-01T09:13:35.632Z,62.73
2023-04-01T09:14:57.827Z,62.92
2023-04-01T09:16:12.393Z,62.90
2023-04-01T09:17:16.503Z,63.04
2023-04-01T09:18:50.557Z,63.09
2023-04-01T09:20:00.959Z,63.21
2023-04-01T09:21:30.046Z,63.25
2023-04-01T09:22:52.723Z,63.47
2023-04-01T09:23:57.237Z,63.07
2023-04-01T09:25:26.750Z,63.62
2023-04-01T09:26:52.568Z,63.50
2023-04-01T09:28:02.727Z,63.83
2023-04-01T09:29:33.744Z,64.26
2023-04-01T09:30:52.677Z,64.90
2023-04-01T09:32:12.967Z,64.42
2023-04-01T09:33:38.461Z,64.33
2023-04-01T09:34:42.915Z,64.23
2023-04-01T09:35:49.864Z,63.83
2023-04-01T09:37:11.472Z,64.05
2023-04-01T09:38:31.380Z,63.85
2023-04-01T09:39:49.492Z,63.98
2023-04-01T09:41:21.114Z,63.66
2023-04-01T09:42:26.047Z,63.63
2023-04-01T09:43:44.198Z,63.78
2023-04-01T09:44:58.887Z,64.00
2023-04-01T09:46:13.045Z,64.13
2023-04-01T09:47:58.308Z,64.25
2023-04-01T09:49:20.869Z,63.92
2023-04-01T09:50:43.566Z,63.43
2023-04-01T09:52:08.594Z,63.89
2023-04-01T09:53:41.280Z,63.85
2023-04-01T09:54:59.784Z,64.20
2023-04-01T09:56:29.306Z,64.37
2023-04-01T09:58:08.572Z,65.58
2023-04-01T09:59:34.062Z,66.38
2023-04-01T10:00:54.478Z,66.79
2023-04-01T10:02:22.765Z,66.81
2023-04-01T10:03:45.963Z,66.49
2023-04-01T10:04:53.508Z,67.59
2023-04-01T10:06:26.582Z,67.47
2023-04-01T10:07:37.021Z,67.65
2023-04-01T10:09:17.428Z,67.59
2023-04-01T10:10:45.591Z,67.33
2023-04-01T10:11:59.236Z,67.53
2023-04-01T10:13:24.118Z,68.16
2023-04-01T10:14:30.404Z,68.38
2023-04-01T10:15:35.088Z,68.44
2023-04-01T10:16:55.027Z,68.86
2023-04-01T10:18:06.188Z,69.08
2023-04-01T10:19:44.228Z,69.18
2023-04-01T10:21:08.117Z,69.29
2023-04-01T10:22:34.299Z,68.33
2023-04-01T10:23:54.500Z,68.21
2023-04-01T10:25:49.849Z,69.87
2023-04-01T10:27:11.187Z,69.77
2023-04-01T10:28:31.260Z,70.03
2023-04-01T10:30:06.465Z,70.65
2023-04-01T10:31:39.203Z,70.91
2023-04-01T10:32:43.631Z,71.42
2023-04-01T10:34:24.671Z,71.76
2023-04-01T10:36:03.611Z,71.57
2023-04-01T10:37:38.727Z,71.52
2023-04-01T10:38:58.464Z,71.98
2023-04-01T10:40:08.633Z,72.69
2023-04-01T10:41:37.652Z,73.13
2023-04-01T10:43:03.973Z,72.95
2023-04-01T10:44:27.975Z,73.51
2023-04-01T10:45:59.092Z,74.33
2023-04-01T10:47:02.542Z,74.63
2023-04-01T10:48:35.443Z,74.42
2023-04-01T10:49:49.177Z,74.71
2023-04-01T10:51:06.851Z,74.26
2023-04-01T10:52:59.738Z,74.84
2023-04-01T10:54:35.145Z,75.34
2023-04-01T10:55:38.333Z,75.06
2023-04-01T10:56:41.640Z,75.00
2023-04-01T10:58:12.282Z,75.35
2023-04-01T10:59:42.951Z,75.51
2023-04-01T11:01:21.659Z,75.63
2023-04-01T11:02:46.856Z,75.69
2023-04-01T11:04:06.698Z,75.91
2023-04-01T11:05:23.245Z,75.93
2023-04-01T11:07:00.061Z,76.68
2023-04-01T11:08:23.768Z,77.25
2023-04-01T11:09:47.071Z,76.80
2023-04-01T11:11:10.401Z,77.13
2023-04-01T11:12:14.954Z,77.08
2023-04-01T11:13:58.234Z,77.46
2023-04-01T11:15:33.095Z,77.32
2023-04-01T11:16:41.024Z,77.34
2023-04-01T11:17:51.967Z,77.11
2023-04-01T11:19:21.740Z,76.89
2023-04-01T11:20:26.283Z,77.10
2023-04-01T11:21:55.850Z,77.17
2023-04-01T11:23:04.772Z,76.46
2023-04-01T11:24:36.345Z,76.71
2023-04-01T11:25:58.560Z,76.62
2023-04-01T11:27:26.639Z,76.10
2023-04-01T11:28:52.584Z,75.92
2023-04-01T11:30:25.186Z,76.37
2023-04-01T11:32:05.653Z,76.05
2023-04-01T11:33:22.623Z,75.42
2023-04-01T11:34:39.296Z,74.99
2023-04-01T11:35:59.082Z,75.44
2023-04-01T11:37:18.513Z,75.16
2023-04-01T11:38:42.137Z,74.54
2023-04-01T11:40:00.883Z,74.99
2023-04-01T11:41:29.154Z,74.72
2023-04-01T11:42:39.156Z,74.82
2023-04-01T11:43:59.205Z,74.92
2023-04-01T11:45:49.902Z,74.62
2023-04-01T11:47:20.588Z,74.11
2023-04-01T11:48:31.250Z,74.05
2023-04-01T11:50:01.084Z,73.92
2023-04-01T11:51:33.466Z,72.68
2023-04-01T11:53:22.084Z,72.54
2023-04-01T11:54:39.094Z,73.26
2023-04-01T11:55:52.592Z,73.36
2023-04-01T11:57:14.388Z,74.20
2023-04-01T11:58:31.066Z,74.64
2023-04-01T11:59:57.815Z,74.93
2023-04-01T12:01:13.921Z,74.47
2023-04-01T12:02:42.187Z,74.36
2023-04-01T12:04:02.912Z,74.94
2023-04-01T12:05:20.024Z,75.42
2023-04-01T12:06:40.400Z,75.57
2023-04-01T12:08:05.421Z,76.03
2023-04-01T12:09:16.229Z,75.76
2023-04-01T12:10:39.713Z,75.90
2023-04-01T12:11:59.515Z,75.93
2023-04-01T12:13:15.582Z,75.68
2023-04-01T12:14:51.265Z,76.34
2023-04-01T12:16:05.949Z,76.98
2023-04-01T12:17:28.865Z,76.79
2023-04-01T12:18:40.550Z,76.65
2023-04-01T12:20:12.805Z,76.22
2023-04-01T12:21:33.190Z,76.04
2023-04-01T12:23:03.753Z,75.52
2023-04-01T12:24:40.585Z,75.42
2023-04-01T12:26:06.943Z,74.86
2023-04-01T12:27:20.484Z,75.26
2023-04-01T12:28:41.144Z,74.99
2023-04-01T12:30:10.490Z,75.12
2023-04-01T12:31:28.350Z,75.43
2023-04-01T12:32:34.223Z,75.61
2023-04-01T12:34:00.403Z,75.21
2023-04-01T12:35:08.346Z,75.08
2023-04-01T12:36:32.079Z,75.12
2023-04-01T12:37:54.781Z,75.28
2023-04-01T12:39:09.251Z,75.36
2023-04-01T12:40:48.899Z,75.81
2023-04-01T12:42:01.571Z,75.86
2023-04-01T12:43:06.004Z,76.24
2023-04-01T12:44:10.896Z,76.40
2023-04-01T12:45:30.006Z,76.49
2023-04-01T12:47:08.721Z,76.29
2023-04-01T12:48:16.520Z,76.94
2023-04-01T12:49:34.832Z,77.06
2023-04-01T12:50:48.697Z,77.11
2023-04-01T12:52:07.428Z,76.94
2023-04-01T12:53:35.701Z,77.04
2023-04-01T12:54:46.228Z,76.80
2023-04-01T12:55:53.750Z,76.49
2023-04-01T12:57:17.359Z,76.88
2023-04-01T12:58:31.023Z,76.94
2023-04-01T12:59:47.760Z,76.24
2023-04-01T13:01:22.442Z,76.52
2023-04-01T13:03:00.815Z,76.28
2023-04-01T13:04:02.726Z,76.30
2023-04-01T13:05:16.540Z,76.72
2023-04-01T13:06:43.227Z,76.80
2023-04-01T13:08:08.890Z,77.64
2023-04-01T13:09:37.720Z,77.96
2023-04-01T13:10:59.715Z,78.25
2023-04-01T13:12:52.671Z,78.01
2023-04-01T13:14:31.900Z,78.51
2023-04-01T13:15:43.763Z,78.02
2023-04-01T13:17:22.340Z,77.92
2023-04-01T13:18:56.533Z,78.25
2023-04-01T13:20:12.669Z,78.49
2023-04-01T13:21:42.418Z,78.08
2023-04-01T13:23:08.736Z,78.34
2023-04-01T13:24:49.400Z,78.33
2023-04-01T13:26:14.067Z,78.66
2023-04-01T13:27:51.627Z,78.39
2023-04-01T13:29:44.519Z,78.23
2023-04-01T13:31:10.094Z,78.81
2023-04-01T13:34:06.109Z,78.89
2023-04-01T13:35:24.706Z,78.22
2023-04-01T13:36:32.335Z,78.38
2023-04-01T13:37:52.144Z,78.29
2023-04-01T13:39:27.871Z,77.91
2023-04-01T13:40:38.384Z,78.13
2023-04-01T13:41:56.388Z,77.82
2023-04-01T13:43:05.661Z,77.68
2023-04-01T13:44:20.654Z,77.47
2023-04-01T13:46:09.543Z,77.43
2023-04-01T13:47:38.934Z,77.74
2023-04-01T13:48:50.518Z,77.90
2023-04-01T13:49:57.783Z,77.94
2023-04-01T13:51:13.501Z,77.76
2023-04-01T13:52:42.142Z,77.63
2023-04-01T13:54:05.470Z,77.46
2023-04-01T13:55:28.953Z,76.96
2023-04-01T13:56:30.410Z,76.56
2023-04-01T13:57:49.225Z,76.79
2023-04-01T13:59:21.770Z,76.64
2023-04-01T14:00:32.831Z,77.07
2023-04-01T14:01:48.152Z,77.07
2023-04-01T14:03:25.078Z,77.62
2023-04-01T14:04:51.596Z,77.27
2023-04-01T14:06:07.000Z,77.05
2023-04-01T14:07:19.651Z,76.97
2023-04-01T14:08:58.115Z,77.25
2023-04-01T14:10:19.603Z,77.22
2023-04-01T14:11:33.500Z,77.17
2023-04-01T14:13:17.130Z,77.10
2023-04-01T14:14:57.164Z,76.67
2023-04-01T14:16:16.357Z,77.03
2023-04-01T14:17:33.266Z,77.14
2023-04-01T14:18:49.311Z,76.81
2023-04-01T14:20:15.101Z,76.95
2023-04-01T14:21:35.081Z,77.83
2023-04-01T14:22:50.929Z,77.67
2023-04-01T14:24:13.636Z,77.05
2023-04-01T14:25:37.443Z,77.67
2023-04-01T14:26:45.135Z,78.08
2023-04-01T14:27:59.333Z,78.93
2023-04-01T14:29:19.432Z,78.88
2023-04-01T14:30:35.964Z,79.23
2023-04-01T14:32:00.802Z,79.33
2023-04-01T14:33:17.625Z,79.06
2023-04-01T14:34:59.283Z,78.54
2023-04-01T14:36:39.629Z,78.82
2023-04-01T14:37:50.088Z,79.12
2023-04-01T14:39:04.216Z,79.34
2023-04-01T14:40:43.289Z,79.30
2023-04-01T14:42:12.144Z,79.39
2023-04-01T14:44:12.796Z,79.15
2023-04-01T14:45:33.149Z,78.83
2023-04-01T14:46:54.815Z,78.59
2023-04-01T14:47:58.112Z,78.63
2023-04-01T14:49:33.524Z,79.17
2023-04-01T14:50:46.946Z,79.23
2023-04-01T14:51:49.515Z,79.11
2023-04-01T14:53:17.097Z,78.64
2023-04-01T14:54:36.736Z,79.34
2023-04-01T14:55:44.317Z,79.26
2023-04-01T14:56:50.737Z,79.46
2023-04-01T14:58:07.620Z,79.12
2023-04-01T14:59:14.580Z,79.17
2023-04-01T15:00:19.756Z,80.00
2023-04-01T15:01:43.762Z,79.72
2023-04-01T15:03:03.221Z,79.95
2023-04-01T15:04:16.590Z,80.34
2023-04-01T15:05:28.477Z,80.59
2023-04-01T15:06:52.110Z,80.91
2023-04-01T15:08:11.736Z,80.82
2023-04-01T15:09:34.011Z,80.79
2023-04-01T15:11:04.439Z,80.40
2023-04-01T15:12:11.886Z,80.37
2023-04-01T15:13:30.473Z,80.30
2023-04-01T15:14:39.773Z,79.63
2023-04-01T15:16:18.954Z,79.69
2023-04-01T15:17:47.854Z,79.54
2023-04-01T15:19:20.505Z,79.79
2023-04-01T15:20:52.526Z,79.96
2023-04-01T15:22:12.714Z,80.46
2023-04-01T15:23:27.233Z,80.41
2023-04-01T15:24:59.557Z,80.00
2023-04-01T15:26:13.439Z,79.76
2023-04-01T15:27:29.979Z,79.03
2023-04-01T15:29:10.665Z,79.69
2023-04-01T15:30:18.290Z,79.61
2023-04-01T15:31:43.766Z,79.13
2023-04-01T15:33:15.405Z,79.00
2023-04-01T15:34:39.420Z,79.21
2023-04-01T15:36:01.500Z,79.36
2023-04-01T15:37:21.192Z,79.00
2023-04-01T15:38:41.198Z,79.04
2023-04-01T15:40:01.528Z,78.72
2023-04-01T15:41:17.310Z,78.87
2023-04-01T15:42:30.040Z,78.99
2023-04-01T15:43:37.355Z,79.02
2023-04-01T15:44:56.383Z,78.49
2023-04-01T15:46:22.536Z,78.59
2023-04-01T15:47:26.881Z,78.34
2023-04-01T15:48:43.334Z,78.09
2023-04-01T15:49:51.157Z,77.02